Terminal Aerodrome Forecast
Issued by NWS

Home | Current Version | Previous Version | Text Only | Print | Product List | Glossary On
Versions: 1 2 3 4 5 6 7 8 9 10 11 12 13 14 15 16 17 18 19 20 21 22 23 24 25 26 27 28 29 30 31 32 33 34
575
FTAK31 PANC 060531
TAFADU
TAF
PADU 060531Z 0606/0706 28009KT P6SM VCSH SCT025 BKN035
     FM061200 34008KT P6SM BKN050
     FM070000 34012G20KT P6SM SCT060
      AMD LTD TO CLD VIS AND WX TIL 061600=

USA.gov is the U.S. government's official web portal to all federal, state and local government web resources and services.